sensor_id;sensor_type;location;lat;lon;timestamp;pressure;altitude;pressure_sealevel;temperature;humidity
32492;BME280;20605;49.742;18.802;2023-05-15T00:00:21;97121.33;;;12.59;100.00
32492;BME280;20605;49.742;18.802;2023-05-15T00:02:47;97127.55;;;12.60;100.00
32492;BME280;20605;49.742;18.802;2023-05-15T00:05:13;97125.23;;;12.57;100.00
32492;BME280;20605;49.742;18.802;2023-05-15T00:07:39;97122.16;;;12.53;100.00
32492;BME280;20605;49.742;18.802;2023-05-15T00:10:05;97118.65;;;12.50;100.00
32492;BME280;20605;49.742;18.802;2023-05-15T00:12:31;97114.94;;;12.48;100.00
32492;BME280;20605;49.742;18.802;2023-05-15T00:14:56;97109.60;;;12.47;100.00
32492;BME280;20605;49.742;18.802;2023-05-15T00:17:22;97091.88;;;12.46;100.00
32492;BME280;20605;49.742;18.802;2023-05-15T00:19:48;97089.17;;;12.44;100.00
32492;BME280;20605;49.742;18.802;2023-05-15T00:22:13;97088.20;;;12.43;100.00
32492;BME280;20605;49.742;18.802;2023-05-15T00:24:39;97078.34;;;12.41;100.00
32492;BME280;20605;49.742;18.802;2023-05-15T00:27:05;97071.65;;;12.39;100.00
32492;BME280;20605;49.742;18.802;2023-05-15T00:29:31;97070.88;;;12.41;100.00
32492;BME280;20605;49.742;18.802;2023-05-15T00:31:56;97074.74;;;12.44;100.00
32492;BME280;20605;49.742;18.802;2023-05-15T00:34:23;97074.30;;;12.49;100.00
32492;BME280;20605;49.742;18.802;2023-05-15T00:36:49;97073.04;;;12.54;100.00
32492;BME280;20605;49.742;18.802;2023-05-15T00:39:15;97076.35;;;12.53;100.00
32492;BME280;20605;49.742;18.802;2023-05-15T00:41:42;97075.38;;;12.49;100.00
32492;BME280;20605;49.742;18.802;2023-05-15T00:44:07;97073.89;;;12.47;100.00
32492;BME280;20605;49.742;18.802;2023-05-15T00:46:34;97073.19;;;12.47;100.00
32492;BME280;20605;49.742;18.802;2023-05-15T00:49:02;97064.84;;;12.47;100.00
32492;BME280;20605;49.742;18.802;2023-05-15T00:51:27;97061.09;;;12.45;100.00
32492;BME280;20605;49.742;18.802;2023-05-15T00:53:54;97065.90;;;12.47;100.00
32492;BME280;20605;49.742;18.802;2023-05-15T00:56:22;97069.05;;;12.47;100.00
32492;BME280;20605;49.742;18.802;2023-05-15T00:58:50;97064.65;;;12.47;100.00
32492;BME280;20605;49.742;18.802;2023-05-15T01:01:17;97059.59;;;12.51;100.00
32492;BME280;20605;49.742;18.802;2023-05-15T01:03:44;97057.13;;;12.55;100.00
32492;BME280;20605;49.742;18.802;2023-05-15T01:06:10;97051.12;;;12.56;100.00
32492;BME280;20605;49.742;18.802;2023-05-15T01:08:42;97045.25;;;12.55;100.00
32492;BME280;20605;49.742;18.802;2023-05-15T01:11:14;97037.92;;;12.59;100.00
32492;BME280;20605;49.742;18.802;2023-05-15T01:13:40;97031.65;;;12.66;100.00
32492;BME280;20605;49.742;18.802;2023-05-15T01:16:06;97026.27;;;12.68;100.00
32492;BME280;20605;49.742;18.802;2023-05-15T01:18:33;97020.30;;;12.69;100.00
32492;BME280;20605;49.742;18.802;2023-05-15T01:29:17;97019.99;;;12.42;100.00
32492;BME280;20605;49.742;18.802;2023-05-15T01:31:48;97028.41;;;12.40;100.00
32492;BME280;20605;49.742;18.802;2023-05-15T01:34:15;97033.02;;;12.39;100.00
32492;BME280;20605;49.742;18.802;2023-05-15T01:36:47;97030.69;;;12.40;100.00
32492;BME280;20605;49.742;18.802;2023-05-15T01:39:18;97027.23;;;12.44;100.00
32492;BME280;20605;49.742;18.802;2023-05-15T01:41:50;97020.27;;;12.47;100.00
32492;BME280;20605;49.742;18.802;2023-05-15T01:44:27;97020.59;;;12.48;100.00
32492;BME280;20605;49.742;18.802;2023-05-15T01:46:59;97012.40;;;12.37;100.00
32492;BME280;20605;49.742;18.802;2023-05-15T01:49:26;97015.40;;;12.36;100.00
32492;BME280;20605;49.742;18.802;2023-05-15T01:51:56;97016.55;;;12.38;100.00
32492;BME280;20605;49.742;18.802;2023-05-15T01:54:24;97013.59;;;12.41;100.00
32492;BME280;20605;49.742;18.802;2023-05-15T01:56:51;97012.61;;;12.47;100.00
32492;BME280;20605;49.742;18.802;2023-05-15T01:59:23;97014.70;;;12.47;100.00
32492;BME280;20605;49.742;18.802;2023-05-15T02:01:50;97013.39;;;12.46;100.00
32492;BME280;20605;49.742;18.802;2023-05-15T02:04:16;97009.98;;;12.47;100.00
32492;BME280;20605;49.742;18.802;2023-05-15T02:06:44;97010.59;;;12.46;100.00
32492;BME280;20605;49.742;18.802;2023-05-15T02:09:11;97006.77;;;12.41;100.00
32492;BME280;20605;49.742;18.802;2023-05-15T02:11:38;97004.89;;;12.41;100.00
32492;BME280;20605;49.742;18.802;2023-05-15T02:14:40;97010.61;;;12.41;100.00
32492;BME280;20605;49.742;18.802;2023-05-15T02:17:13;97011.08;;;12.39;100.00
32492;BME280;20605;49.742;18.802;2023-05-15T02:19:41;97009.69;;;12.39;100.00
32492;BME280;20605;49.742;18.802;2023-05-15T02:22:07;97006.98;;;12.41;100.00
32492;BME280;20605;49.742;18.802;2023-05-15T02:25:11;97003.38;;;12.47;100.00
32492;BME280;20605;49.742;18.802;2023-05-15T02:27:52;97000.83;;;12.49;100.00
32492;BME280;20605;49.742;18.802;2023-05-15T02:30:37;96997.88;;;12.49;100.00
32492;BME280;20605;49.742;18.802;2023-05-15T02:33:25;96990.52;;;12.43;100.00
32492;BME280;20605;49.742;18.802;2023-05-15T02:36:13;96987.58;;;12.39;100.00
32492;BME280;20605;49.742;18.802;2023-05-15T02:38:49;96985.15;;;12.36;100.00
32492;BME280;20605;49.742;18.802;2023-05-15T02:41:20;96982.33;;;12.30;100.00
32492;BME280;20605;49.742;18.802;2023-05-15T02:43:50;96983.63;;;12.18;100.00
32492;BME280;20605;49.742;18.802;2023-05-15T02:46:42;96982.50;;;12.13;100.00
32492;BME280;20605;49.742;18.802;2023-05-15T02:49:49;96986.77;;;12.15;100.00
32492;BME280;20605;49.742;18.802;2023-05-15T02:52:36;96993.13;;;12.06;100.00
32492;BME280;20605;49.742;18.802;2023-05-15T02:55:04;96993.38;;;11.97;100.00
32492;BME280;20605;49.742;18.802;2023-05-15T02:57:37;96990.41;;;11.87;100.00
32492;BME280;20605;49.742;18.802;2023-05-15T03:00:07;96989.10;;;11.78;100.00
32492;BME280;20605;49.742;18.802;2023-05-15T03:02:44;96986.42;;;11.75;100.00
32492;BME280;20605;49.742;18.802;2023-05-15T03:05:10;96979.55;;;11.74;100.00
32492;BME280;20605;49.742;18.802;2023-05-15T03:07:43;96972.05;;;11.71;100.00
32492;BME280;20605;49.742;18.802;2023-05-15T03:10:11;96962.52;;;11.73;100.00
32492;BME280;20605;49.742;18.802;2023-05-15T03:12:40;96962.77;;;11.80;100.00
32492;BME280;20605;49.742;18.802;2023-05-15T03:15:06;96957.27;;;11.82;100.00
32492;BME280;20605;49.742;18.802;2023-05-15T03:17:35;96952.87;;;11.87;100.00
32492;BME280;20605;49.742;18.802;2023-05-15T03:20:03;96949.68;;;11.94;100.00
32492;BME280;20605;49.742;18.802;2023-05-15T03:22:49;96945.38;;;11.97;100.00
32492;BME280;20605;49.742;18.802;2023-05-15T03:25:16;96939.28;;;11.97;100.00
32492;BME280;20605;49.742;18.802;2023-05-15T03:27:49;96939.50;;;11.99;100.00
32492;BME280;20605;49.742;18.802;2023-05-15T03:32:42;96926.76;;;12.04;100.00
32492;BME280;20605;49.742;18.802;2023-05-15T03:35:24;96926.17;;;12.01;100.00
32492;BME280;20605;49.742;18.802;2023-05-15T03:37:51;96930.64;;;12.02;100.00
32492;BME280;20605;49.742;18.802;2023-05-15T03:40:17;96935.98;;;12.07;100.00
32492;BME280;20605;49.742;18.802;2023-05-15T03:42:45;96937.83;;;12.12;100.00
32492;BME280;20605;49.742;18.802;2023-05-15T03:45:36;96938.96;;;12.17;100.00
32492;BME280;20605;49.742;18.802;2023-05-15T03:50:27;96940.77;;;12.29;100.00
32492;BME280;20605;49.742;18.802;2023-05-15T03:52:57;96941.08;;;12.33;100.00
32492;BME280;20605;49.742;18.802;2023-05-15T03:55:26;96946.48;;;12.32;100.00
32492;BME280;20605;49.742;18.802;2023-05-15T03:57:52;96949.16;;;12.31;100.00
32492;BME280;20605;49.742;18.802;2023-05-15T04:00:24;96948.81;;;12.31;100.00
32492;BME280;20605;49.742;18.802;2023-05-15T04:02:51;96944.17;;;12.27;100.00
32492;BME280;20605;49.742;18.802;2023-05-15T04:05:20;96941.99;;;12.22;100.00
32492;BME280;20605;49.742;18.802;2023-05-15T04:07:50;96934.55;;;12.25;100.00
32492;BME280;20605;49.742;18.802;2023-05-15T04:10:39;96926.09;;;12.27;100.00
32492;BME280;20605;49.742;18.802;2023-05-15T04:13:29;96917.09;;;12.32;100.00
32492;BME280;20605;49.742;18.802;2023-05-15T04:16:32;96909.27;;;12.42;100.00
32492;BME280;20605;49.742;18.802;2023-05-15T04:19:00;96909.66;;;12.48;100.00
32492;BME280;20605;49.742;18.802;2023-05-15T04:21:29;96906.02;;;12.54;100.00
32492;BME280;20605;49.742;18.802;2023-05-15T04:24:00;96909.74;;;12.59;100.00
32492;BME280;20605;49.742;18.802;2023-05-15T04:26:26;96912.21;;;12.61;100.00
32492;BME280;20605;49.742;18.802;2023-05-15T04:28:57;96914.86;;;12.64;100.00
32492;BME280;20605;49.742;18.802;2023-05-15T04:31:24;96914.20;;;12.70;100.00
32492;BME280;20605;49.742;18.802;2023-05-15T04:33:59;96911.32;;;12.75;100.00
32492;BME280;20605;49.742;18.802;2023-05-15T04:36:47;96912.01;;;12.78;100.00
32492;BME280;20605;49.742;18.802;2023-05-15T04:39:16;96910.73;;;12.80;100.00
32492;BME280;20605;49.742;18.802;2023-05-15T04:41:54;96912.00;;;12.75;100.00
32492;BME280;20605;49.742;18.802;2023-05-15T04:44:22;96909.25;;;12.68;100.00
32492;BME280;20605;49.742;18.802;2023-05-15T04:46:48;96904.27;;;12.67;100.00
32492;BME280;20605;49.742;18.802;2023-05-15T04:49:15;96905.01;;;12.69;100.00
32492;BME280;20605;49.742;18.802;2023-05-15T04:51:41;96901.16;;;12.76;100.00
32492;BME280;20605;49.742;18.802;2023-05-15T04:54:06;96898.62;;;12.84;100.00
32492;BME280;20605;49.742;18.802;2023-05-15T04:56:32;96897.36;;;12.94;100.00
32492;BME280;20605;49.742;18.802;2023-05-15T04:58:57;96897.00;;;13.03;100.00
32492;BME280;20605;49.742;18.802;2023-05-15T05:01:24;96897.42;;;13.11;100.00
32492;BME280;20605;49.742;18.802;2023-05-15T05:04:09;96894.98;;;13.21;100.00
32492;BME280;20605;49.742;18.802;2023-05-15T05:06:35;96896.41;;;13.29;100.00
32492;BME280;20605;49.742;18.802;2023-05-15T05:09:03;96895.29;;;13.36;100.00
32492;BME280;20605;49.742;18.802;2023-05-15T05:11:41;96895.42;;;13.44;100.00
32492;BME280;20605;49.742;18.802;2023-05-15T05:14:17;96899.33;;;13.49;100.00
32492;BME280;20605;49.742;18.802;2023-05-15T05:16:43;96894.61;;;13.46;100.00
32492;BME280;20605;49.742;18.802;2023-05-15T05:19:22;96895.36;;;13.38;100.00
32492;BME280;20605;49.742;18.802;2023-05-15T05:22:07;96890.40;;;13.31;100.00
32492;BME280;20605;49.742;18.802;2023-05-15T05:24:35;96884.84;;;13.18;100.00
32492;BME280;20605;49.742;18.802;2023-05-15T05:27:43;96887.17;;;13.07;100.00
32492;BME280;20605;49.742;18.802;2023-05-15T05:30:19;96883.97;;;13.08;100.00
32492;BME280;20605;49.742;18.802;2023-05-15T05:32:55;96882.52;;;13.06;100.00
32492;BME280;20605;49.742;18.802;2023-05-15T05:36:13;96885.05;;;13.02;100.00
32492;BME280;20605;49.742;18.802;2023-05-15T05:38:47;96885.71;;;13.09;100.00
32492;BME280;20605;49.742;18.802;2023-05-15T05:41:21;96888.35;;;13.14;100.00
32492;BME280;20605;49.742;18.802;2023-05-15T05:44:14;96885.65;;;13.09;100.00
32492;BME280;20605;49.742;18.802;2023-05-15T05:47:05;96879.39;;;13.19;100.00
32492;BME280;20605;49.742;18.802;2023-05-15T05:49:37;96871.42;;;13.33;100.00
32492;BME280;20605;49.742;18.802;2023-05-15T05:52:22;96867.34;;;13.50;100.00
32492;BME280;20605;49.742;18.802;2023-05-15T05:55:14;96868.05;;;13.61;100.00
32492;BME280;20605;49.742;18.802;2023-05-15T05:58:12;96871.36;;;13.76;100.00
32492;BME280;20605;49.742;18.802;2023-05-15T06:00:39;96868.27;;;13.84;100.00
32492;BME280;20605;49.742;18.802;2023-05-15T06:03:06;96870.00;;;13.90;100.00
32492;BME280;20605;49.742;18.802;2023-05-15T06:05:31;96868.95;;;13.85;100.00
32492;BME280;20605;49.742;18.802;2023-05-15T06:08:06;96869.02;;;13.81;100.00
32492;BME280;20605;49.742;18.802;2023-05-15T06:10:33;96870.14;;;13.79;100.00
32492;BME280;20605;49.742;18.802;2023-05-15T06:13:09;96869.63;;;13.82;100.00
32492;BME280;20605;49.742;18.802;2023-05-15T06:15:36;96867.50;;;13.85;100.00
32492;BME280;20605;49.742;18.802;2023-05-15T06:18:03;96868.55;;;13.91;100.00
32492;BME280;20605;49.742;18.802;2023-05-15T06:20:35;96866.85;;;13.96;100.00
32492;BME280;20605;49.742;18.802;2023-05-15T06:28:48;96864.95;;;14.04;100.00
32492;BME280;20605;49.742;18.802;2023-05-15T06:31:43;96862.46;;;14.02;100.00
32492;BME280;20605;49.742;18.802;2023-05-15T06:34:18;96865.23;;;13.97;100.00
32492;BME280;20605;49.742;18.802;2023-05-15T06:37:34;96864.71;;;13.85;100.00
32492;BME280;20605;49.742;18.802;2023-05-15T06:40:08;96866.59;;;13.86;100.00
32492;BME280;20605;49.742;18.802;2023-05-15T06:42:37;96868.69;;;13.89;100.00
32492;BME280;20605;49.742;18.802;2023-05-15T06:45:27;96866.85;;;13.96;100.00
32492;BME280;20605;49.742;18.802;2023-05-15T06:48:16;96863.60;;;14.07;100.00
32492;BME280;20605;49.742;18.802;2023-05-15T06:51:04;96862.00;;;14.13;100.00
32492;BME280;20605;49.742;18.802;2023-05-15T06:53:42;96864.85;;;14.15;100.00
32492;BME280;20605;49.742;18.802;2023-05-15T06:56:17;96865.17;;;14.15;100.00
32492;BME280;20605;49.742;18.802;2023-05-15T06:58:57;96863.55;;;14.13;100.00
32492;BME280;20605;49.742;18.802;2023-05-15T07:02:03;96859.14;;;14.17;100.00
32492;BME280;20605;49.742;18.802;2023-05-15T07:05:04;96856.70;;;14.14;100.00
32492;BME280;20605;49.742;18.802;2023-05-15T07:07:51;96858.17;;;14.07;100.00
32492;BME280;20605;49.742;18.802;2023-05-15T07:10:28;96858.91;;;14.03;100.00
32492;BME280;20605;49.742;18.802;2023-05-15T07:13:25;96857.45;;;14.07;100.00
32492;BME280;20605;49.742;18.802;2023-05-15T07:15:58;96859.57;;;14.13;100.00
32492;BME280;20605;49.742;18.802;2023-05-15T07:19:17;96859.80;;;14.20;100.00
32492;BME280;20605;49.742;18.802;2023-05-15T07:22:17;96860.67;;;14.28;100.00
32492;BME280;20605;49.742;18.802;2023-05-15T07:25:16;96856.41;;;14.35;100.00
32492;BME280;20605;49.742;18.802;2023-05-15T07:27:55;96851.26;;;14.36;100.00
32492;BME280;20605;49.742;18.802;2023-05-15T07:30:42;96849.33;;;14.36;100.00
32492;BME280;20605;49.742;18.802;2023-05-15T07:33:15;96851.57;;;14.40;100.00
32492;BME280;20605;49.742;18.802;2023-05-15T07:36:12;96856.92;;;14.41;100.00
32492;BME280;20605;49.742;18.802;2023-05-15T07:39:28;96855.67;;;14.38;100.00
32492;BME280;20605;49.742;18.802;2023-05-15T07:46:31;96858.17;;;14.40;100.00
32492;BME280;20605;49.742;18.802;2023-05-15T07:49:54;96863.98;;;14.46;100.00
32492;BME280;20605;49.742;18.802;2023-05-15T07:52:34;96872.59;;;14.56;100.00
32492;BME280;20605;49.742;18.802;2023-05-15T07:55:42;96873.73;;;14.66;100.00
32492;BME280;20605;49.742;18.802;2023-05-15T07:58:51;96869.55;;;14.63;100.00
32492;BME280;20605;49.742;18.802;2023-05-15T08:02:05;96878.38;;;14.50;100.00
32492;BME280;20605;49.742;18.802;2023-05-15T08:04:57;96874.45;;;14.52;100.00
32492;BME280;20605;49.742;18.802;2023-05-15T08:08:20;96876.59;;;14.48;100.00
32492;BME280;20605;49.742;18.802;2023-05-15T08:11:34;96875.27;;;14.38;100.00
32492;BME280;20605;49.742;18.802;2023-05-15T08:14:15;96873.87;;;14.35;100.00
32492;BME280;20605;49.742;18.802;2023-05-15T08:17:37;96875.54;;;14.45;100.00
32492;BME280;20605;49.742;18.802;2023-05-15T08:20:52;96875.48;;;14.57;100.00
32492;BME280;20605;49.742;18.802;2023-05-15T08:24:01;96879.20;;;14.60;100.00
32492;BME280;20605;49.742;18.802;2023-05-15T08:26:44;96878.40;;;14.64;100.00
32492;BME280;20605;49.742;18.802;2023-05-15T08:29:55;96882.36;;;14.71;100.00
32492;BME280;20605;49.742;18.802;2023-05-15T08:32:44;96882.84;;;14.82;100.00
32492;BME280;20605;49.742;18.802;2023-05-15T08:38:05;96881.06;;;15.07;100.00
32492;BME280;20605;49.742;18.802;2023-05-15T08:41:13;96875.09;;;15.16;100.00
32492;BME280;20605;49.742;18.802;2023-05-15T08:44:17;96871.58;;;15.11;100.00
32492;BME280;20605;49.742;18.802;2023-05-15T08:47:37;96867.29;;;15.17;100.00
32492;BME280;20605;49.742;18.802;2023-05-15T08:53:00;96876.58;;;15.38;100.00
32492;BME280;20605;49.742;18.802;2023-05-15T08:56:19;96881.25;;;15.42;100.00
32492;BME280;20605;49.742;18.802;2023-05-15T08:59:08;96886.80;;;15.48;100.00
32492;BME280;20605;49.742;18.802;2023-05-15T09:02:19;96886.30;;;15.47;100.00
32492;BME280;20605;49.742;18.802;2023-05-15T09:05:22;96882.80;;;15.50;100.00
32492;BME280;20605;49.742;18.802;2023-05-15T09:08:14;96886.61;;;15.56;100.00
32492;BME280;20605;49.742;18.802;2023-05-15T09:11:17;96880.12;;;15.70;100.00
32492;BME280;20605;49.742;18.802;2023-05-15T09:14:19;96875.23;;;15.85;100.00
32492;BME280;20605;49.742;18.802;2023-05-15T09:17:09;96879.55;;;16.01;100.00
32492;BME280;20605;49.742;18.802;2023-05-15T09:19:52;96875.96;;;16.20;100.00
32492;BME280;20605;49.742;18.802;2023-05-15T09:22:51;96880.16;;;16.30;100.00
32492;BME280;20605;49.742;18.802;2023-05-15T09:25:55;96877.54;;;16.48;100.00
32492;BME280;20605;49.742;18.802;2023-05-15T09:29:03;96885.96;;;16.65;100.00
32492;BME280;20605;49.742;18.802;2023-05-15T09:32:13;96893.86;;;16.60;100.00
32492;BME280;20605;49.742;18.802;2023-05-15T09:35:06;96898.59;;;16.37;100.00
32492;BME280;20605;49.742;18.802;2023-05-15T09:38:22;96897.08;;;16.06;100.00
32492;BME280;20605;49.742;18.802;2023-05-15T09:41:04;96896.27;;;15.94;100.00
32492;BME280;20605;49.742;18.802;2023-05-15T09:43:38;96891.52;;;15.95;100.00
32492;BME280;20605;49.742;18.802;2023-05-15T09:46:33;96895.45;;;15.86;100.00
32492;BME280;20605;49.742;18.802;2023-05-15T09:49:35;96899.15;;;15.81;100.00
32492;BME280;20605;49.742;18.802;2023-05-15T09:52:37;96901.48;;;15.85;100.00
32492;BME280;20605;49.742;18.802;2023-05-15T09:55:13;96897.68;;;15.84;100.00
32492;BME280;20605;49.742;18.802;2023-05-15T09:58:05;96904.21;;;15.86;100.00
32492;BME280;20605;49.742;18.802;2023-05-15T10:01:03;96905.53;;;16.00;100.00
32492;BME280;20605;49.742;18.802;2023-05-15T10:03:57;96905.13;;;16.14;100.00
32492;BME280;20605;49.742;18.802;2023-05-15T10:06:45;96898.67;;;16.39;100.00
32492;BME280;20605;49.742;18.802;2023-05-15T10:10:03;96907.41;;;16.89;100.00
32492;BME280;20605;49.742;18.802;2023-05-15T10:13:01;96910.70;;;17.52;100.00
32492;BME280;20605;49.742;18.802;2023-05-15T10:15:35;96908.18;;;18.07;100.00
32492;BME280;20605;49.742;18.802;2023-05-15T10:18:43;96903.47;;;18.59;100.00
32492;BME280;20605;49.742;18.802;2023-05-15T10:21:40;96902.54;;;19.08;100.00
32492;BME280;20605;49.742;18.802;2023-05-15T10:24:50;96906.14;;;19.55;100.00
32492;BME280;20605;49.742;18.802;2023-05-15T10:27:25;96905.09;;;19.82;100.00
32492;BME280;20605;49.742;18.802;2023-05-15T10:30:31;96900.95;;;19.81;100.00
32492;BME280;20605;49.742;18.802;2023-05-15T10:33:29;96905.84;;;19.54;100.00
32492;BME280;20605;49.742;18.802;2023-05-15T10:36:20;96905.44;;;19.57;100.00
32492;BME280;20605;49.742;18.802;2023-05-15T10:39:16;96907.44;;;19.77;100.00
32492;BME280;20605;49.742;18.802;2023-05-15T10:42:25;96910.13;;;19.94;100.00
32492;BME280;20605;49.742;18.802;2023-05-15T10:45:01;96911.45;;;19.99;100.00
32492;BME280;20605;49.742;18.802;2023-05-15T10:47:42;96911.30;;;19.88;100.00
32492;BME280;20605;49.742;18.802;2023-05-15T10:50:12;96911.35;;;19.79;100.00
32492;BME280;20605;49.742;18.802;2023-05-15T10:52:45;96910.91;;;19.80;100.00
32492;BME280;20605;49.742;18.802;2023-05-15T10:55:42;96907.77;;;19.86;100.00
32492;BME280;20605;49.742;18.802;2023-05-15T10:58:26;96898.51;;;19.96;100.00
32492;BME280;20605;49.742;18.802;2023-05-15T11:01:45;96892.44;;;19.80;100.00
32492;BME280;20605;49.742;18.802;2023-05-15T11:04:59;96894.15;;;19.55;100.00
32492;BME280;20605;49.742;18.802;2023-05-15T11:14:13;96893.09;;;19.10;100.00
32492;BME280;20605;49.742;18.802;2023-05-15T11:16:56;96891.38;;;18.74;100.00
32492;BME280;20605;49.742;18.802;2023-05-15T11:20:05;96895.34;;;18.37;100.00
32492;BME280;20605;49.742;18.802;2023-05-15T11:22:41;96891.84;;;17.91;100.00
32492;BME280;20605;49.742;18.802;2023-05-15T11:25:15;96896.55;;;17.42;100.00
32492;BME280;20605;49.742;18.802;2023-05-15T11:28:05;96891.21;;;16.97;100.00
32492;BME280;20605;49.742;18.802;2023-05-15T11:31:13;96893.95;;;16.91;100.00
32492;BME280;20605;49.742;18.802;2023-05-15T11:37:15;96894.30;;;17.22;100.00
32492;BME280;20605;49.742;18.802;2023-05-15T11:40:03;96891.08;;;17.49;100.00
32492;BME280;20605;49.742;18.802;2023-05-15T11:43:01;96882.88;;;17.60;100.00
32492;BME280;20605;49.742;18.802;2023-05-15T11:46:28;96872.63;;;17.61;100.00
32492;BME280;20605;49.742;18.802;2023-05-15T11:48:59;96867.71;;;17.40;100.00
32492;BME280;20605;49.742;18.802;2023-05-15T11:51:33;96870.16;;;17.19;100.00
32492;BME280;20605;49.742;18.802;2023-05-15T11:54:45;96875.11;;;17.13;100.00
32492;BME280;20605;49.742;18.802;2023-05-15T11:57:32;96875.15;;;17.11;100.00
32492;BME280;20605;49.742;18.802;2023-05-15T12:00:05;96879.95;;;17.10;100.00
32492;BME280;20605;49.742;18.802;2023-05-15T12:03:05;96882.65;;;17.14;100.00
32492;BME280;20605;49.742;18.802;2023-05-15T12:06:03;96888.91;;;17.05;100.00
32492;BME280;20605;49.742;18.802;2023-05-15T12:08:41;96892.70;;;17.01;100.00
32492;BME280;20605;49.742;18.802;2023-05-15T12:11:55;96885.94;;;16.81;100.00
32492;BME280;20605;49.742;18.802;2023-05-15T12:14:29;96875.46;;;16.65;100.00
32492;BME280;20605;49.742;18.802;2023-05-15T12:17:25;96876.20;;;16.42;100.00
32492;BME280;20605;49.742;18.802;2023-05-15T12:20:14;96882.55;;;16.26;100.00
32492;BME280;20605;49.742;18.802;2023-05-15T12:22:50;96874.07;;;16.15;100.00
32492;BME280;20605;49.742;18.802;2023-05-15T12:25:51;96886.11;;;16.10;100.00
32492;BME280;20605;49.742;18.802;2023-05-15T12:31:17;96895.23;;;16.28;100.00
32492;BME280;20605;49.742;18.802;2023-05-15T12:33:48;96895.14;;;16.42;100.00
32492;BME280;20605;49.742;18.802;2023-05-15T12:36:34;96893.59;;;16.49;100.00
32492;BME280;20605;49.742;18.802;2023-05-15T12:39:26;96898.89;;;16.58;100.00
32492;BME280;20605;49.742;18.802;2023-05-15T12:42:52;96903.23;;;16.61;100.00
32492;BME280;20605;49.742;18.802;2023-05-15T12:45:40;96898.84;;;16.51;100.00
32492;BME280;20605;49.742;18.802;2023-05-15T12:48:35;96898.09;;;16.37;100.00
32492;BME280;20605;49.742;18.802;2023-05-15T12:51:05;96905.46;;;16.29;100.00
32492;BME280;20605;49.742;18.802;2023-05-15T12:53:43;96909.34;;;16.32;100.00
32492;BME280;20605;49.742;18.802;2023-05-15T12:56:31;96905.95;;;16.30;100.00
32492;BME280;20605;49.742;18.802;2023-05-15T12:59:47;96904.29;;;16.36;100.00
32492;BME280;20605;49.742;18.802;2023-05-15T13:02:31;96908.25;;;16.55;100.00
32492;BME280;20605;49.742;18.802;2023-05-15T13:05:22;96896.10;;;16.85;100.00
32492;BME280;20605;49.742;18.802;2023-05-15T13:08:01;96896.28;;;17.10;100.00
32492;BME280;20605;49.742;18.802;2023-05-15T13:54:51;96903.08;;;17.84;100.00
32492;BME280;20605;49.742;18.802;2023-05-15T13:57:48;96908.09;;;17.74;100.00
32492;BME280;20605;49.742;18.802;2023-05-15T14:10:08;96925.39;;;17.51;100.00
32492;BME280;20605;49.742;18.802;2023-05-15T15:16:42;96924.23;;;16.82;100.00
32492;BME280;20605;49.742;18.802;2023-05-15T15:22:54;96931.38;;;16.65;100.00
32492;BME280;20605;49.742;18.802;2023-05-15T15:32:00;96935.85;;;17.03;100.00
32492;BME280;20605;49.742;18.802;2023-05-15T16:18:09;96959.14;;;16.79;100.00
32492;BME280;20605;49.742;18.802;2023-05-15T16:25:00;96968.11;;;16.66;100.00
32492;BME280;20605;49.742;18.802;2023-05-15T16:46:56;96991.63;;;16.19;100.00
32492;BME280;20605;49.742;18.802;2023-05-15T16:50:02;96998.75;;;16.07;100.00
32492;BME280;20605;49.742;18.802;2023-05-15T16:59:03;97023.54;;;15.74;100.00
32492;BME280;20605;49.742;18.802;2023-05-15T17:01:29;97027.06;;;15.68;100.00
32492;BME280;20605;49.742;18.802;2023-05-15T17:03:55;97028.05;;;15.61;100.00
32492;BME280;20605;49.742;18.802;2023-05-15T17:06:29;97030.06;;;15.54;100.00
32492;BME280;20605;49.742;18.802;2023-05-15T17:09:05;97025.83;;;15.52;100.00
32492;BME280;20605;49.742;18.802;2023-05-15T17:11:46;97024.12;;;15.54;100.00
32492;BME280;20605;49.742;18.802;2023-05-15T17:14:37;97022.35;;;15.57;100.00
32492;BME280;20605;49.742;18.802;2023-05-15T17:17:04;97028.13;;;15.65;100.00
32492;BME280;20605;49.742;18.802;2023-05-15T17:20:29;97029.53;;;15.76;100.00
32492;BME280;20605;49.742;18.802;2023-05-15T17:23:24;97036.74;;;15.83;100.00
32492;BME280;20605;49.742;18.802;2023-05-15T17:26:22;97037.82;;;15.91;100.00
32492;BME280;20605;49.742;18.802;2023-05-15T17:28:48;97042.20;;;15.93;100.00
32492;BME280;20605;49.742;18.802;2023-05-15T17:31:22;97044.29;;;15.96;100.00
32492;BME280;20605;49.742;18.802;2023-05-15T17:34:09;97053.73;;;15.99;100.00
32492;BME280;20605;49.742;18.802;2023-05-15T17:37:11;97055.81;;;15.94;100.00
32492;BME280;20605;49.742;18.802;2023-05-15T17:39:54;97061.58;;;15.89;100.00
32492;BME280;20605;49.742;18.802;2023-05-15T17:42:45;97063.72;;;15.83;100.00
32492;BME280;20605;49.742;18.802;2023-05-15T17:45:34;97057.86;;;15.76;100.00
32492;BME280;20605;49.742;18.802;2023-05-15T17:48:41;97063.49;;;15.70;100.00
32492;BME280;20605;49.742;18.802;2023-05-15T17:51:18;97063.88;;;15.61;100.00
32492;BME280;20605;49.742;18.802;2023-05-15T17:54:05;97067.04;;;15.53;100.00
32492;BME280;20605;49.742;18.802;2023-05-15T17:57:04;97073.36;;;15.47;100.00
32492;BME280;20605;49.742;18.802;2023-05-15T17:59:48;97080.23;;;15.44;100.00
32492;BME280;20605;49.742;18.802;2023-05-15T18:02:42;97083.30;;;15.42;100.00